createdAt,value
2022-08-26T00:02:01.239Z,20.31
2022-08-26T00:04:31.387Z,20.29
2022-08-26T00:07:00.889Z,20.28
2022-08-26T00:09:29.710Z,20.30
2022-08-26T00:11:58.221Z,20.29
2022-08-26T00:14:31.029Z,20.24
2022-08-26T00:17:00.475Z,20.21
2022-08-26T00:19:29.115Z,20.20
2022-08-26T00:21:57.650Z,20.19
2022-08-26T00:24:26.197Z,20.19
2022-08-26T00:26:54.773Z,20.16
2022-08-26T00:29:23.260Z,20.13
2022-08-26T00:31:51.853Z,20.10
2022-08-26T00:34:20.337Z,20.07
2022-08-26T00:36:51.805Z,20.02
2022-08-26T00:39:21.473Z,19.97
2022-08-26T00:41:50.049Z,19.92
2022-08-26T00:44:19.043Z,19.89
2022-08-26T00:46:51.951Z,19.86
2022-08-26T00:49:28.500Z,19.83
2022-08-26T00:52:02.898Z,19.79
2022-08-26T00:54:37.282Z,19.74
2022-08-26T00:57:16.282Z,19.70
2022-08-26T00:59:47.711Z,19.66
2022-08-26T01:02:20.916Z,19.63
2022-08-26T01:04:55.459Z,19.63
2022-08-26T01:07:26.150Z,19.64
2022-08-26T01:09:55.405Z,19.65
2022-08-26T01:12:25.122Z,19.67
2022-08-26T01:14:54.928Z,19.68
2022-08-26T01:17:23.572Z,19.67
2022-08-26T01:19:56.715Z,19.65
2022-08-26T01:22:33.741Z,19.60
2022-08-26T01:25:04.459Z,19.53
2022-08-26T01:27:36.138Z,19.48
2022-08-26T01:30:06.373Z,19.45
2022-08-26T01:32:35.636Z,19.42
2022-08-26T01:35:09.271Z,19.40
2022-08-26T01:37:40.517Z,19.39
2022-08-26T01:40:14.223Z,19.39
2022-08-26T01:42:46.441Z,19.36
2022-08-26T01:45:19.705Z,19.35
2022-08-26T01:47:57.012Z,19.34
2022-08-26T01:50:30.217Z,19.29
2022-08-26T01:53:02.542Z,19.24
2022-08-26T01:55:34.072Z,19.19
2022-08-26T01:58:07.810Z,19.14
2022-08-26T02:00:37.819Z,19.13
2022-08-26T02:03:17.111Z,19.14
2022-08-26T02:05:51.276Z,19.14
2022-08-26T02:08:24.680Z,19.15
2022-08-26T02:10:55.213Z,19.13
2022-08-26T02:13:26.059Z,19.14
2022-08-26T02:15:56.179Z,19.15
2022-08-26T02:18:27.874Z,19.17
2022-08-26T02:20:57.352Z,19.19
2022-08-26T02:23:26.125Z,19.18
2022-08-26T02:26:00.184Z,19.15
2022-08-26T02:28:34.205Z,19.12
2022-08-26T02:31:03.481Z,19.07
2022-08-26T02:33:33.209Z,19.03
2022-08-26T02:36:02.150Z,18.97
2022-08-26T02:38:32.748Z,18.91
2022-08-26T02:41:02.313Z,18.85
2022-08-26T02:43:31.441Z,18.78
2022-08-26T02:46:02.396Z,18.71
2022-08-26T02:48:31.367Z,18.66
2022-08-26T02:51:01.114Z,18.61
2022-08-26T02:53:31.812Z,18.58
2022-08-26T02:56:00.836Z,18.55
2022-08-26T02:58:30.021Z,18.51
2022-08-26T03:00:58.562Z,18.48
2022-08-26T03:03:27.321Z,18.48
2022-08-26T03:05:56.426Z,18.47
2022-08-26T03:08:25.028Z,18.46
2022-08-26T03:10:54.034Z,18.45
2022-08-26T03:13:22.606Z,18.45
2022-08-26T03:15:51.273Z,18.45
2022-08-26T03:18:20.093Z,18.44
2022-08-26T03:20:49.201Z,18.42
2022-08-26T03:23:18.568Z,18.39
2022-08-26T03:25:50.436Z,18.37
2022-08-26T03:28:19.643Z,18.33
2022-08-26T03:30:48.643Z,18.31
2022-08-26T03:33:18.473Z,18.28
2022-08-26T03:35:47.665Z,18.27
2022-08-26T03:38:19.969Z,18.25
2022-08-26T03:40:48.693Z,18.24
2022-08-26T03:43:19.117Z,18.23
2022-08-26T03:45:47.683Z,18.24
2022-08-26T03:48:16.123Z,18.23
2022-08-26T03:50:44.850Z,18.21
2022-08-26T03:53:13.587Z,18.19
2022-08-26T03:55:42.344Z,18.17
2022-08-26T03:58:12.000Z,18.15
2022-08-26T04:00:40.627Z,18.15
2022-08-26T04:03:11.161Z,18.14
2022-08-26T04:05:41.795Z,18.15
2022-08-26T04:08:10.381Z,18.18
2022-08-26T04:10:39.097Z,18.24
2022-08-26T04:13:07.780Z,18.27
2022-08-26T04:15:36.500Z,18.33
2022-08-26T04:18:05.430Z,18.34
2022-08-26T04:20:34.113Z,18.34
2022-08-26T04:23:02.679Z,18.35
2022-08-26T04:25:31.611Z,18.42
2022-08-26T04:28:00.611Z,18.52
2022-08-26T04:30:29.249Z,18.65
2022-08-26T04:32:58.287Z,18.82
2022-08-26T04:35:26.727Z,19.01
2022-08-26T04:37:55.402Z,19.21
2022-08-26T04:40:26.864Z,19.42
2022-08-26T04:42:55.796Z,19.69
2022-08-26T04:45:25.075Z,19.96
2022-08-26T04:47:55.726Z,20.23
2022-08-26T04:50:25.626Z,20.50
2022-08-26T04:52:55.558Z,20.75
2022-08-26T04:55:38.253Z,20.97
2022-08-26T04:58:08.795Z,21.22
2022-08-26T05:00:39.189Z,21.50
2022-08-26T05:03:10.313Z,21.80
2022-08-26T05:05:41.961Z,22.01
2022-08-26T05:08:11.807Z,22.21
2022-08-26T05:10:42.191Z,22.49
2022-08-26T05:13:15.743Z,22.75
2022-08-26T05:15:45.432Z,23.05
2022-08-26T05:18:15.980Z,23.34
2022-08-26T05:20:54.018Z,23.61
2022-08-26T05:23:24.282Z,23.91
2022-08-26T05:25:59.364Z,24.23
2022-08-26T05:28:30.199Z,24.53
2022-08-26T05:30:59.005Z,24.79
2022-08-26T05:33:28.781Z,25.06
2022-08-26T05:35:57.350Z,25.32
2022-08-26T05:38:26.816Z,25.57
2022-08-26T05:40:59.339Z,25.81
2022-08-26T05:43:28.416Z,26.10
2022-08-26T05:46:06.048Z,26.35
2022-08-26T05:48:34.776Z,26.59
2022-08-26T05:51:05.937Z,26.84
2022-08-26T05:53:35.150Z,27.13
2022-08-26T05:56:07.011Z,27.37
2022-08-26T05:58:38.513Z,27.64
2022-08-26T06:01:10.103Z,27.91
2022-08-26T06:03:43.873Z,28.15
2022-08-26T06:06:14.807Z,28.38
2022-08-26T06:08:49.642Z,28.61
2022-08-26T06:11:20.037Z,28.87
2022-08-26T06:13:49.129Z,29.14
2022-08-26T06:16:22.712Z,29.38
2022-08-26T06:18:54.029Z,29.56
2022-08-26T06:21:25.058Z,29.75
2022-08-26T06:24:13.998Z,29.91
2022-08-26T06:26:49.755Z,30.19
2022-08-26T06:29:24.664Z,30.46
2022-08-26T06:31:56.132Z,30.66
2022-08-26T06:34:29.642Z,30.91
2022-08-26T06:37:01.635Z,31.05
2022-08-26T06:39:31.630Z,31.23
2022-08-26T06:42:02.682Z,31.47
2022-08-26T06:44:35.473Z,31.59
2022-08-26T06:47:04.519Z,31.69
2022-08-26T06:49:33.288Z,31.79
2022-08-26T06:52:02.274Z,31.92
2022-08-26T06:54:30.939Z,31.95
2022-08-26T06:57:00.537Z,32.04
2022-08-26T06:59:30.522Z,32.20
2022-08-26T07:01:59.171Z,32.41
2022-08-26T07:04:28.874Z,32.45
2022-08-26T07:06:57.497Z,32.45
2022-08-26T07:09:28.620Z,32.49
2022-08-26T07:11:57.182Z,32.66
2022-08-26T07:14:26.176Z,32.74
2022-08-26T07:16:55.707Z,32.74
2022-08-26T07:19:27.681Z,32.90
2022-08-26T07:22:04.309Z,33.14
2022-08-26T07:24:35.376Z,33.26
2022-08-26T07:27:05.646Z,33.39
2022-08-26T07:29:35.377Z,33.39
2022-08-26T07:32:05.311Z,33.45
2022-08-26T07:34:34.457Z,33.55
2022-08-26T07:37:03.358Z,33.76
2022-08-26T07:39:32.792Z,33.90
2022-08-26T07:42:07.417Z,34.09
2022-08-26T07:44:37.116Z,34.21
2022-08-26T07:47:10.558Z,34.26
2022-08-26T07:49:57.250Z,34.41
2022-08-26T07:52:28.774Z,34.56
2022-08-26T07:55:00.005Z,34.76
2022-08-26T07:57:29.802Z,34.85
2022-08-26T07:59:58.536Z,34.85
2022-08-26T08:02:29.823Z,34.94
2022-08-26T08:04:59.365Z,35.09
2022-08-26T08:07:38.266Z,35.19
2022-08-26T08:10:11.577Z,35.32
2022-08-26T08:12:40.592Z,35.44
2022-08-26T08:15:13.096Z,35.47
2022-08-26T08:17:55.663Z,35.53
2022-08-26T08:20:29.301Z,35.59
2022-08-26T08:22:58.726Z,35.69
2022-08-26T08:25:27.238Z,35.74
2022-08-26T08:27:55.852Z,35.76
2022-08-26T08:30:25.750Z,35.84
2022-08-26T08:32:55.357Z,35.86
2022-08-26T08:35:25.887Z,35.92
2022-08-26T08:37:54.949Z,35.91
2022-08-26T08:40:26.403Z,35.83
2022-08-26T08:43:01.097Z,35.83
2022-08-26T08:45:37.251Z,35.73
2022-08-26T08:48:13.115Z,35.76
2022-08-26T08:50:45.930Z,35.79
2022-08-26T08:53:17.810Z,35.82
2022-08-26T08:55:58.077Z,35.94
2022-08-26T08:58:35.400Z,36.01
2022-08-26T09:01:11.810Z,36.09
2022-08-26T09:03:50.938Z,36.31
2022-08-26T09:06:20.578Z,36.59
2022-08-26T09:08:51.618Z,36.84
2022-08-26T09:11:20.597Z,37.02
2022-08-26T09:13:51.733Z,37.18
2022-08-26T09:16:24.740Z,37.34
2022-08-26T09:19:14.864Z,37.39
2022-08-26T09:21:55.667Z,37.38
2022-08-26T09:24:28.569Z,37.44
2022-08-26T09:26:58.445Z,37.47
2022-08-26T09:29:28.949Z,37.40
2022-08-26T09:32:18.753Z,37.25
2022-08-26T09:34:58.450Z,36.96
2022-08-26T09:37:39.135Z,36.70
2022-08-26T09:40:18.376Z,36.58
2022-08-26T09:43:07.677Z,36.48
2022-08-26T09:45:37.124Z,36.37
2022-08-26T09:48:08.358Z,36.08
2022-08-26T09:50:39.289Z,35.68
2022-08-26T09:53:17.425Z,35.45
2022-08-26T09:55:54.469Z,35.45
2022-08-26T09:58:37.798Z,35.53
2022-08-26T10:01:13.957Z,35.55
2022-08-26T10:03:44.437Z,35.52
2022-08-26T10:06:26.118Z,35.51
2022-08-26T10:08:58.397Z,35.38
2022-08-26T10:11:34.381Z,35.26
2022-08-26T10:14:17.030Z,35.01
2022-08-26T10:16:52.511Z,34.85
2022-08-26T10:19:40.187Z,34.46
2022-08-26T10:22:23.053Z,34.34
2022-08-26T10:24:57.343Z,34.48
2022-08-26T10:27:40.585Z,34.51
2022-08-26T10:30:24.141Z,34.47
2022-08-26T10:32:57.991Z,34.30
2022-08-26T10:35:27.300Z,34.28
2022-08-26T10:38:03.362Z,34.31
2022-08-26T10:40:44.880Z,34.35
2022-08-26T10:43:21.054Z,34.37
2022-08-26T10:45:53.046Z,34.34
2022-08-26T10:48:35.617Z,34.21
2022-08-26T10:51:05.763Z,34.09
2022-08-26T10:53:44.886Z,33.97
2022-08-26T10:56:24.669Z,33.79
2022-08-26T10:59:03.882Z,33.44
2022-08-26T11:01:42.992Z,33.01
2022-08-26T11:04:23.537Z,32.56
2022-08-26T11:07:24.899Z,32.19
2022-08-26T11:09:53.448Z,31.90
2022-08-26T11:12:57.223Z,31.65
2022-08-26T11:16:09.899Z,31.39
2022-08-26T11:18:48.061Z,31.14
2022-08-26T11:21:45.134Z,31.01
2022-08-26T11:25:00.097Z,30.93
2022-08-26T11:28:02.976Z,30.88
2022-08-26T11:30:43.993Z,30.85
2022-08-26T11:33:59.470Z,30.85
2022-08-26T11:36:42.523Z,30.89
2022-08-26T11:39:19.665Z,30.90
2022-08-26T11:41:52.755Z,30.91
2022-08-26T11:44:24.463Z,30.89
2022-08-26T11:46:58.899Z,30.86
2022-08-26T11:49:29.229Z,30.88
2022-08-26T11:52:15.548Z,30.85
2022-08-26T11:55:02.613Z,30.82
2022-08-26T11:57:34.299Z,30.84
2022-08-26T12:00:07.417Z,30.85
2022-08-26T12:02:40.942Z,30.86
2022-08-26T12:05:12.292Z,30.89
2022-08-26T12:07:42.631Z,30.93
2022-08-26T12:10:24.500Z,30.96
2022-08-26T12:13:00.079Z,30.98
2022-08-26T12:15:31.385Z,30.92
2022-08-26T12:18:15.750Z,30.87
2022-08-26T12:20:47.944Z,30.84
2022-08-26T12:23:25.027Z,30.82
2022-08-26T12:26:05.224Z,30.82
2022-08-26T12:28:41.176Z,30.82
2022-08-26T12:31:10.042Z,30.85
2022-08-26T12:33:38.988Z,30.87
2022-08-26T12:36:08.154Z,30.88
2022-08-26T12:38:39.866Z,30.89
2022-08-26T12:41:08.555Z,30.91
2022-08-26T12:43:40.148Z,30.91
2022-08-26T12:46:11.032Z,30.89
2022-08-26T12:48:44.177Z,30.87
2022-08-26T12:51:23.029Z,30.84
2022-08-26T12:53:52.427Z,30.81
2022-08-26T12:56:27.407Z,30.80
2022-08-26T12:59:10.295Z,30.80
2022-08-26T13:01:44.104Z,30.78
2022-08-26T13:04:38.151Z,30.78
2022-08-26T13:07:29.763Z,30.78
2022-08-26T13:09:58.407Z,30.80
2022-08-26T13:12:30.436Z,30.79
2022-08-26T13:15:00.868Z,30.79
2022-08-26T13:17:30.644Z,30.80
2022-08-26T13:20:03.819Z,30.79
2022-08-26T13:22:33.336Z,30.76
2022-08-26T13:25:02.080Z,30.72
2022-08-26T13:27:30.886Z,30.69
2022-08-26T13:30:00.961Z,30.66
2022-08-26T13:32:31.145Z,30.64
2022-08-26T13:35:00.004Z,30.62
2022-08-26T13:37:35.609Z,30.62
2022-08-26T13:40:06.604Z,30.62
2022-08-26T13:42:35.482Z,30.62
2022-08-26T13:45:06.441Z,30.60
2022-08-26T13:47:37.840Z,30.59
2022-08-26T13:50:07.866Z,30.57
2022-08-26T13:52:36.710Z,30.56
2022-08-26T13:55:09.300Z,30.56
2022-08-26T13:57:38.152Z,30.56
2022-08-26T14:00:10.981Z,30.55
2022-08-26T14:02:40.230Z,30.54
2022-08-26T14:05:09.913Z,30.53
2022-08-26T14:07:41.529Z,30.50
2022-08-26T14:10:12.124Z,30.49
2022-08-26T14:12:40.699Z,30.47
2022-08-26T14:15:11.761Z,30.46
2022-08-26T14:17:40.411Z,30.45
2022-08-26T14:20:13.919Z,30.44
2022-08-26T14:23:03.406Z,30.42
2022-08-26T14:25:33.335Z,30.42
2022-08-26T14:28:01.915Z,30.41
2022-08-26T14:30:34.272Z,30.40
2022-08-26T14:33:03.004Z,30.40
2022-08-26T14:35:32.011Z,30.39
2022-08-26T14:38:00.500Z,30.38
2022-08-26T14:40:31.159Z,30.38
2022-08-26T14:43:00.576Z,30.37
2022-08-26T14:45:29.448Z,30.34
2022-08-26T14:47:59.194Z,30.31
2022-08-26T14:50:27.799Z,30.28
2022-08-26T14:53:15.033Z,30.25
2022-08-26T14:55:44.326Z,30.21
2022-08-26T14:58:13.671Z,30.18
2022-08-26T15:00:44.530Z,30.16
2022-08-26T15:05:48.882Z,30.12
2022-08-26T15:08:20.155Z,30.11
2022-08-26T15:10:50.519Z,30.09
2022-08-26T15:13:19.703Z,30.07
2022-08-26T15:15:52.039Z,30.06
2022-08-26T15:18:21.723Z,30.03
2022-08-26T15:20:52.062Z,30.01
2022-08-26T15:23:20.788Z,29.99
2022-08-26T15:25:49.880Z,29.96
2022-08-26T15:28:18.500Z,29.94
2022-08-26T15:30:47.309Z,29.92
2022-08-26T15:33:16.099Z,29.90
2022-08-26T15:35:44.783Z,29.88
2022-08-26T15:38:13.721Z,29.89
2022-08-26T15:40:43.521Z,29.88
2022-08-26T15:43:27.627Z,29.86
2022-08-26T15:45:58.231Z,29.83
2022-08-26T15:48:27.875Z,29.79
2022-08-26T15:51:00.035Z,29.76
2022-08-26T15:53:32.447Z,29.71
2022-08-26T15:56:03.703Z,29.68
2022-08-26T15:58:33.630Z,29.64
2022-08-26T16:01:05.942Z,29.59
2022-08-26T16:03:35.696Z,29.57
2022-08-26T16:06:06.288Z,29.53
2022-08-26T16:08:36.697Z,29.47
2022-08-26T16:11:06.963Z,29.44
2022-08-26T16:13:40.120Z,29.40
2022-08-26T16:16:09.997Z,29.33
2022-08-26T16:18:39.085Z,29.29
2022-08-26T16:21:13.679Z,29.25
2022-08-26T16:23:45.111Z,29.21
2022-08-26T16:26:14.918Z,29.16
2022-08-26T16:28:43.968Z,29.10
2022-08-26T16:31:13.264Z,29.06
2022-08-26T16:33:42.073Z,29.01
2022-08-26T16:36:11.938Z,28.95
2022-08-26T16:38:41.693Z,28.88
2022-08-26T16:41:10.425Z,28.82
2022-08-26T16:43:39.120Z,28.75
2022-08-26T16:46:10.779Z,28.68
2022-08-26T16:48:39.667Z,28.60
2022-08-26T16:51:12.800Z,28.48
2022-08-26T16:53:41.820Z,28.36
2022-08-26T16:56:14.290Z,28.25
2022-08-26T16:58:43.174Z,28.15
2022-08-26T17:01:11.874Z,28.05
2022-08-26T17:03:40.738Z,27.94
2022-08-26T17:06:11.006Z,27.83
2022-08-26T17:08:40.567Z,27.75
2022-08-26T17:11:09.505Z,27.68
2022-08-26T17:13:38.912Z,27.62
2022-08-26T17:16:09.964Z,27.57
2022-08-26T17:18:38.929Z,27.51
2022-08-26T17:21:10.699Z,27.45
2022-08-26T17:23:40.953Z,27.40
2022-08-26T17:26:11.401Z,27.33
2022-08-26T17:28:40.173Z,27.25
2022-08-26T17:31:10.915Z,27.19
2022-08-26T17:33:40.435Z,27.12
2022-08-26T17:36:09.803Z,27.05
2022-08-26T17:38:39.039Z,26.97
2022-08-26T17:41:09.520Z,26.89
2022-08-26T17:43:40.079Z,26.79
2022-08-26T17:46:11.282Z,26.68
2022-08-26T17:48:41.109Z,26.58
2022-08-26T17:51:11.584Z,26.49
2022-08-26T17:53:40.901Z,26.39
2022-08-26T17:56:11.000Z,26.30
2022-08-26T17:58:40.411Z,26.21
2022-08-26T18:01:08.912Z,26.12
2022-08-26T18:03:37.667Z,26.04
2022-08-26T18:06:11.498Z,25.97
2022-08-26T18:08:41.157Z,25.88
2022-08-26T18:11:12.245Z,25.77
2022-08-26T18:13:46.058Z,25.64
2022-08-26T18:16:18.155Z,25.56
2022-08-26T18:18:47.937Z,25.47
2022-08-26T18:21:19.210Z,25.32
2022-08-26T18:23:48.632Z,25.20
2022-08-26T18:26:19.915Z,25.06
2022-08-26T18:28:49.245Z,24.92
2022-08-26T18:31:18.962Z,24.79
2022-08-26T18:33:49.516Z,24.67
2022-08-26T18:36:21.971Z,24.56
2022-08-26T18:38:52.637Z,24.44
2022-08-26T18:41:24.228Z,24.31
2022-08-26T18:43:54.745Z,24.20
2022-08-26T18:46:26.116Z,24.15
2022-08-26T18:48:57.312Z,24.12
2022-08-26T18:51:29.487Z,24.09
2022-08-26T18:54:01.137Z,24.05
2022-08-26T18:56:31.917Z,24.00
2022-08-26T18:59:01.424Z,23.97
2022-08-26T19:01:32.694Z,23.94
2022-08-26T19:04:04.742Z,23.90
2022-08-26T19:06:37.802Z,23.86
2022-08-26T19:09:09.966Z,23.80
2022-08-26T19:11:43.992Z,23.73
2022-08-26T19:14:16.970Z,23.67
2022-08-26T19:16:51.824Z,23.62
2022-08-26T19:19:24.239Z,23.57
2022-08-26T19:21:56.936Z,23.53
2022-08-26T19:24:30.601Z,23.49
2022-08-26T19:27:01.272Z,23.44
2022-08-26T19:29:32.836Z,23.41
2022-08-26T19:32:12.849Z,23.34
2022-08-26T19:34:45.443Z,23.25
2022-08-26T19:37:14.331Z,23.13
2022-08-26T19:39:43.179Z,23.02
2022-08-26T19:42:11.789Z,22.93
2022-08-26T19:44:58.523Z,22.81
2022-08-26T19:47:27.156Z,22.66
2022-08-26T19:49:56.279Z,22.55
2022-08-26T19:52:29.912Z,22.43
2022-08-26T19:54:59.973Z,22.34
2022-08-26T19:57:28.681Z,22.27
2022-08-26T19:59:57.310Z,22.22
2022-08-26T20:02:25.964Z,22.19
2022-08-26T20:04:55.405Z,22.19
2022-08-26T20:07:23.812Z,22.19
2022-08-26T20:09:52.487Z,22.17
2022-08-26T20:12:21.023Z,22.15
2022-08-26T20:14:49.519Z,22.08
2022-08-26T20:17:17.992Z,22.01
2022-08-26T20:20:01.583Z,21.96
2022-08-26T20:22:30.618Z,21.96
2022-08-26T20:24:59.241Z,22.00
2022-08-26T20:27:38.097Z,21.97
2022-08-26T20:30:10.265Z,21.93
2022-08-26T20:32:39.711Z,21.96
2022-08-26T20:35:11.835Z,21.96
2022-08-26T20:37:41.048Z,21.96
2022-08-26T20:40:13.187Z,21.93
2022-08-26T20:42:41.932Z,21.90
2022-08-26T20:45:11.566Z,21.87
2022-08-26T20:47:40.744Z,21.83
2022-08-26T20:50:09.978Z,21.83
2022-08-26T20:52:38.884Z,21.81
2022-08-26T20:55:09.164Z,21.78
2022-08-26T20:57:37.671Z,21.80
2022-08-26T21:00:08.274Z,21.82
2022-08-26T21:02:36.933Z,21.82
2022-08-26T21:05:07.741Z,21.80
2022-08-26T21:07:36.260Z,21.77
2022-08-26T21:10:06.437Z,21.71
2022-08-26T21:12:35.073Z,21.64
2022-08-26T21:15:04.131Z,21.56
2022-08-26T21:17:33.606Z,21.42
2022-08-26T21:20:02.960Z,21.29
2022-08-26T21:22:31.717Z,21.17
2022-08-26T21:25:00.933Z,21.08
2022-08-26T21:27:29.584Z,20.98
2022-08-26T21:29:58.346Z,20.92
2022-08-26T21:32:27.343Z,20.86
2022-08-26T21:34:57.070Z,20.80
2022-08-26T21:37:27.419Z,20.75
2022-08-26T21:39:57.374Z,20.75
2022-08-26T21:42:26.723Z,20.77
2022-08-26T21:44:55.359Z,20.78
2022-08-26T21:47:24.317Z,20.80
2022-08-26T21:49:53.670Z,20.77
2022-08-26T21:52:22.274Z,20.68
2022-08-26T21:54:50.915Z,20.66
2022-08-26T21:57:19.966Z,20.65
2022-08-26T21:59:48.604Z,20.65
2022-08-26T22:02:17.162Z,20.65
2022-08-26T22:04:48.828Z,20.65
2022-08-26T22:07:19.473Z,20.66
2022-08-26T22:09:49.135Z,20.66
2022-08-26T22:12:18.519Z,20.63
2022-08-26T22:14:47.377Z,20.60
2022-08-26T22:17:16.399Z,20.59
2022-08-26T22:19:46.383Z,20.56
2022-08-26T22:22:15.912Z,20.52
2022-08-26T22:24:44.622Z,20.47
2022-08-26T22:27:13.648Z,20.41
2022-08-26T22:29:42.421Z,20.36
2022-08-26T22:32:11.077Z,20.32
2022-08-26T22:34:39.965Z,20.30
2022-08-26T22:37:08.460Z,20.28
2022-08-26T22:39:37.632Z,20.26
2022-08-26T22:42:06.593Z,20.20
2022-08-26T22:44:36.955Z,20.13
2022-08-26T22:47:06.069Z,20.04
2022-08-26T22:49:34.789Z,19.93
2022-08-26T22:52:04.039Z,19.83
2022-08-26T22:54:32.637Z,19.75
2022-08-26T22:57:01.342Z,19.69
2022-08-26T22:59:50.045Z,19.62
2022-08-26T23:02:19.166Z,19.58
2022-08-26T23:04:49.375Z,19.55
2022-08-26T23:07:18.065Z,19.53
2022-08-26T23:09:46.673Z,19.50
2022-08-26T23:12:15.154Z,19.49
2022-08-26T23:14:43.736Z,19.49
2022-08-26T23:17:13.745Z,19.49
2022-08-26T23:19:42.898Z,19.48
2022-08-26T23:22:11.739Z,19.45
2022-08-26T23:24:40.390Z,19.43
2022-08-26T23:27:09.138Z,19.37
2022-08-26T23:29:39.133Z,19.33
2022-08-26T23:32:07.839Z,19.32
2022-08-26T23:34:54.615Z,19.28
2022-08-26T23:37:23.334Z,19.22
2022-08-26T23:39:54.566Z,19.21
2022-08-26T23:42:23.249Z,19.19
2022-08-26T23:44:51.958Z,19.13
2022-08-26T23:47:20.575Z,19.14
2022-08-26T23:49:49.207Z,19.14
2022-08-26T23:52:35.771Z,19.14
2022-08-26T23:55:05.866Z,19.14
2022-08-26T23:57:37.773Z,19.17
